createdAt,value
2023-01-19T00:46:16.795Z,1.6
2023-01-19T00:56:17.443Z,1.8
2023-01-19T01:06:17.868Z,1.8
2023-01-19T01:16:18.419Z,1.9
2023-01-19T01:26:19.293Z,1.9
2023-01-19T01:36:19.873Z,1.9
2023-01-19T01:46:20.597Z,1.9
2023-01-19T01:56:21.504Z,1.9
2023-01-19T02:16:22.235Z,2
2023-01-19T02:36:23.785Z,2
2023-01-19T02:46:24.418Z,1.9
2023-01-19T03:16:26.806Z,1.9
2023-01-19T03:26:27.670Z,1.7
2023-01-19T03:36:27.942Z,1.7
2023-01-19T03:46:28.849Z,1.7
2023-01-19T03:56:29.387Z,1.8
2023-01-19T04:06:30.239Z,1.8
2023-01-19T04:16:30.372Z,1.4
2023-01-19T04:26:30.501Z,0.9
2023-01-19T04:36:30.992Z,0.7
2023-01-19T04:46:31.327Z,0.6
2023-01-19T04:56:31.496Z,0.6
2023-01-19T05:06:32.561Z,0.7
2023-01-19T05:16:33.372Z,0.7
2023-01-19T05:26:34.205Z,0.8
2023-01-19T05:36:34.888Z,0.7
2023-01-19T05:46:35.925Z,0.5
2023-01-19T05:56:36.330Z,0.5
2023-01-19T06:06:37.394Z,0.5
2023-01-19T06:16:38.383Z,0.5
2023-01-19T06:26:38.476Z,0.4
2023-01-19T06:36:38.940Z,0.4
2023-01-19T06:46:40.018Z,0.4
2023-01-19T06:56:40.194Z,0.4
2023-01-19T07:06:41.091Z,0.4
2023-01-19T07:16:41.917Z,0.5
2023-01-19T07:26:42.911Z,0.5
2023-01-19T07:36:43.128Z,0.6
2023-01-19T07:46:43.304Z,0.6
2023-01-19T07:56:44.207Z,0.7
2023-01-19T08:06:44.379Z,0.8
2023-01-19T08:16:45.076Z,1
2023-01-19T08:26:45.348Z,1
2023-01-19T08:36:45.887Z,1
2023-01-19T08:56:46.863Z,1.2
2023-01-19T09:06:47.922Z,1.3
2023-01-19T09:16:48.586Z,1.4
2023-01-19T09:26:48.907Z,1.5
2023-01-19T09:36:49.348Z,1.6
2023-01-19T09:56:52.342Z,1.7
2023-01-19T10:16:51.465Z,1.8
2023-01-19T10:26:52.425Z,1.8
2023-01-19T10:36:53.069Z,1.8
2023-01-19T10:46:53.145Z,2
2023-01-19T10:56:54.036Z,2.1
2023-01-19T11:06:54.757Z,2.3
2023-01-19T11:16:55.185Z,2.3
2023-01-19T11:26:55.880Z,2.2
2023-01-19T11:36:57.001Z,2.4
2023-01-19T11:46:57.631Z,2.5
2023-01-19T11:56:58.598Z,2.5
2023-01-19T12:06:59.178Z,2.6
2023-01-19T12:27:00.867Z,2.7
2023-01-19T12:47:02.004Z,2.6
2023-01-19T12:57:02.269Z,2.6
2023-01-19T13:07:02.787Z,2.6
2023-01-19T13:17:03.107Z,2.6
2023-01-19T13:27:04.080Z,2.7
2023-01-19T13:37:04.509Z,2.8
2023-01-19T13:47:05.141Z,2.8
2023-01-19T13:57:05.371Z,2.8
2023-01-19T14:07:06.061Z,2.9
2023-01-19T14:17:06.289Z,3
2023-01-19T14:27:06.648Z,2.9
2023-01-19T14:37:06.997Z,2.7
2023-01-19T14:47:08.057Z,2.7
2023-01-19T14:57:08.260Z,2.6
2023-01-19T15:07:08.534Z,2.5
2023-01-19T15:17:08.638Z,2.6
2023-01-19T15:47:10.195Z,2.4
2023-01-19T15:57:10.299Z,2.3
2023-01-19T16:07:10.441Z,2.1
2023-01-19T16:17:10.787Z,2
2023-01-19T16:27:11.691Z,1.9
2023-01-19T16:47:12.472Z,1.7
2023-01-19T16:57:12.619Z,1.6
2023-01-19T17:07:13.655Z,1.6
2023-01-19T17:27:14.971Z,1.6
2023-01-19T17:37:16.121Z,1.6
2023-01-19T17:47:16.704Z,1.5
2023-01-19T17:57:17.343Z,1.4
2023-01-19T18:07:18.031Z,1.4
2023-01-19T18:17:18.609Z,1.3
2023-01-19T18:27:19.465Z,1.2
2023-01-19T18:37:20.297Z,1.2
2023-01-19T18:47:20.926Z,1.2
2023-01-19T18:57:21.214Z,1.2
2023-01-19T19:07:21.933Z,1.2
2023-01-19T19:17:21.925Z,1.3
2023-01-19T19:27:22.462Z,1.3
2023-01-19T19:37:23.503Z,1.3
2023-01-19T19:47:24.493Z,1.3
2023-01-19T19:57:25.193Z,1.3
2023-01-19T20:07:26.138Z,1.3
2023-01-19T20:17:27.014Z,1.3
2023-01-19T20:27:27.471Z,1.3
2023-01-19T20:37:28.551Z,1.3
2023-01-19T20:47:28.962Z,1.3
2023-01-19T20:57:29.666Z,1.3
2023-01-19T21:07:30.660Z,1.5
2023-01-19T21:17:31.480Z,1.5
2023-01-19T21:27:32.330Z,1.5
2023-01-19T21:37:32.703Z,1.5
2023-01-19T21:47:33.109Z,1.4
2023-01-19T21:57:33.721Z,1.5
2023-01-19T22:07:34.516Z,1.5
2023-01-19T22:27:34.972Z,1.3
2023-01-19T22:37:35.362Z,1.3
2023-01-19T22:47:35.563Z,1.3
2023-01-19T22:57:35.831Z,1.3
2023-01-19T23:07:36.660Z,1.2
2023-01-19T23:17:36.823Z,1.2
2023-01-19T23:27:37.135Z,1.2
2023-01-19T23:37:37.297Z,1.2
2023-01-19T23:47:38.262Z,1.2
2023-01-19T23:57:39.350Z,1.1
